Ayton, Canada
Current Conditions -  °F | °C
As of 9:35 AM on Sunday 23 Nov 2014 (Local Time) from CYVV Reporting Station
Haze Haze  
Wind Chill: 37°   Ceiling: 1600
Heat Index: 43°   Visibility: 4mi
Dew Point: 41°   Wind: 12mph
Humidity: 93%   Direction: 170°S
Pressure: 29.89"   Gusts: NA
Location:  44.05°N, 80.93°W
Report Text: CYVV 231435Z 17010KT 4SM BR OVC016 06/05 A2989 RMK SC8 SLP128
Loading
Personal Weather Stations






























Interactive Weather Map New forecast layout! Learn more

10-Day Weather Forecast

Advertisements
Track Severe Weather on mobile